createdAt,value
2023-03-10T00:00:15.561Z,4.11
2023-03-10T00:02:49.219Z,4.15
2023-03-10T00:05:20.175Z,4.10
2023-03-10T00:07:47.705Z,4.10
2023-03-10T00:10:14.803Z,4.12
2023-03-10T00:12:41.598Z,4.13
2023-03-10T00:15:09.678Z,4.09
2023-03-10T00:17:36.459Z,4.11
2023-03-10T00:20:07.883Z,4.11
2023-03-10T00:22:35.288Z,4.11
2023-03-10T00:25:01.744Z,4.08
2023-03-10T00:27:28.454Z,4.10
2023-03-10T00:29:55.791Z,4.09
2023-03-10T00:32:22.299Z,4.07
2023-03-10T00:34:48.752Z,4.08
2023-03-10T00:37:16.277Z,4.07
2023-03-10T00:39:42.733Z,4.08
2023-03-10T00:42:09.213Z,4.08
2023-03-10T00:44:35.733Z,4.07
2023-03-10T00:47:02.240Z,4.07
2023-03-10T00:49:28.674Z,4.06
2023-03-10T00:51:56.212Z,4.01
2023-03-10T00:54:22.658Z,4.06
2023-03-10T00:56:49.082Z,4.05
2023-03-10T00:59:15.558Z,4.00
2023-03-10T01:01:42.507Z,4.04
2023-03-10T01:04:13.074Z,4.05
2023-03-10T01:06:39.958Z,4.04
2023-03-10T01:09:07.325Z,4.04
2023-03-10T01:11:34.223Z,4.01
2023-03-10T01:14:04.916Z,4.03
2023-03-10T01:16:31.653Z,4.01
2023-03-10T01:18:58.783Z,4.00
2023-03-10T01:21:32.640Z,4.01
2023-03-10T01:24:00.413Z,3.98
2023-03-10T01:26:27.255Z,4.00
2023-03-10T01:28:53.706Z,3.96
2023-03-10T01:31:20.650Z,3.99
2023-03-10T01:33:47.516Z,3.98
2023-03-10T01:36:20.444Z,3.98
2023-03-10T01:38:47.815Z,3.96
2023-03-10T01:41:15.201Z,3.97
2023-03-10T01:43:43.526Z,3.97
2023-03-10T01:46:31.879Z,3.96
2023-03-10T01:49:27.188Z,3.95
2023-03-10T01:51:59.974Z,3.91
2023-03-10T01:54:33.518Z,3.95
2023-03-10T01:56:59.983Z,3.94
2023-03-10T01:59:27.775Z,3.94
2023-03-10T02:01:57.613Z,3.95
2023-03-10T02:04:50.289Z,3.93
2023-03-10T02:07:24.638Z,3.93
2023-03-10T02:09:52.961Z,3.94
2023-03-10T02:12:20.864Z,3.94
2023-03-10T02:14:50.350Z,3.91
2023-03-10T02:17:20.826Z,3.94
2023-03-10T02:20:17.400Z,3.89
2023-03-10T02:22:43.931Z,3.90
2023-03-10T02:25:21.448Z,3.92
2023-03-10T02:27:48.687Z,3.93
2023-03-10T02:30:24.054Z,3.92
2023-03-10T02:32:57.681Z,3.91
2023-03-10T02:35:24.478Z,3.91
2023-03-10T02:37:59.357Z,3.87
2023-03-10T02:40:37.634Z,3.91
2023-03-10T02:43:21.080Z,3.89
2023-03-10T02:45:52.011Z,3.90
2023-03-10T02:48:29.488Z,3.89
2023-03-10T02:50:57.339Z,3.89
2023-03-10T02:53:26.669Z,3.89
2023-03-10T02:55:54.463Z,3.90
2023-03-10T02:58:22.673Z,3.88
2023-03-10T03:00:50.489Z,3.89
2023-03-10T03:03:20.311Z,3.88
2023-03-10T03:05:47.669Z,3.84
2023-03-10T03:08:14.436Z,3.88
2023-03-10T03:10:42.129Z,3.84
2023-03-10T03:13:10.524Z,3.86
2023-03-10T03:15:37.833Z,3.87
2023-03-10T03:18:04.775Z,3.86
2023-03-10T03:20:33.546Z,3.83
2023-03-10T03:23:00.005Z,3.85
2023-03-10T03:25:28.866Z,3.85
2023-03-10T03:27:56.665Z,3.80
2023-03-10T03:30:25.698Z,3.84
2023-03-10T03:32:53.870Z,3.83
2023-03-10T03:35:28.445Z,3.84
2023-03-10T03:37:56.038Z,3.81
2023-03-10T03:40:26.856Z,3.81
2023-03-10T03:42:54.349Z,3.83
2023-03-10T03:45:24.674Z,3.84
2023-03-10T03:47:54.301Z,3.80
2023-03-10T03:50:21.933Z,3.81
2023-03-10T03:52:49.794Z,3.82
2023-03-10T03:55:19.764Z,3.82
2023-03-10T03:57:49.395Z,3.78
2023-03-10T04:00:21.661Z,3.81
2023-03-10T04:02:54.145Z,3.81
2023-03-10T04:05:21.264Z,3.80
2023-03-10T04:07:49.750Z,3.81
2023-03-10T04:10:20.582Z,3.80
2023-03-10T04:12:47.540Z,3.77
2023-03-10T04:15:14.435Z,3.80
2023-03-10T04:17:41.068Z,3.79
2023-03-10T04:20:09.294Z,3.80
2023-03-10T04:22:39.619Z,3.73
2023-03-10T04:25:08.598Z,3.79
2023-03-10T04:27:35.674Z,3.78
2023-03-10T04:30:04.604Z,3.78
2023-03-10T04:32:33.559Z,3.78
2023-03-10T04:35:00.900Z,3.75
2023-03-10T04:37:27.530Z,3.75
2023-03-10T04:39:54.968Z,3.78
2023-03-10T04:42:21.721Z,3.77
2023-03-10T04:44:48.384Z,3.78
2023-03-10T04:47:14.953Z,3.73
2023-03-10T04:49:41.457Z,3.77
2023-03-10T04:52:11.311Z,3.73
2023-03-10T04:54:37.777Z,3.77
2023-03-10T04:57:04.226Z,3.72
2023-03-10T04:59:30.738Z,3.73
2023-03-10T05:01:57.338Z,3.73
2023-03-10T05:04:24.208Z,3.69
2023-03-10T05:06:53.151Z,3.69
2023-03-10T05:09:24.397Z,3.70
2023-03-10T05:11:50.911Z,3.67
2023-03-10T05:14:18.394Z,3.67
2023-03-10T05:16:47.790Z,3.62
2023-03-10T05:19:14.344Z,3.65
2023-03-10T05:21:40.790Z,3.62
2023-03-10T05:24:07.523Z,3.65
2023-03-10T05:26:35.011Z,3.62
2023-03-10T05:29:02.681Z,3.65
2023-03-10T05:31:41.706Z,3.61
2023-03-10T05:34:16.687Z,3.60
2023-03-10T05:36:43.293Z,3.62
2023-03-10T05:39:11.009Z,3.61
2023-03-10T05:41:42.059Z,3.61
2023-03-10T05:44:08.669Z,3.62
2023-03-10T05:46:37.149Z,3.61
2023-03-10T05:49:03.640Z,3.59
2023-03-10T05:51:30.686Z,3.56
2023-03-10T05:54:00.905Z,3.58
2023-03-10T05:56:29.269Z,3.56
2023-03-10T05:58:59.393Z,3.51
2023-03-10T06:01:30.489Z,3.55
2023-03-10T06:03:57.179Z,3.55
2023-03-10T06:06:24.245Z,3.52
2023-03-10T06:08:50.657Z,3.54
2023-03-10T06:11:18.375Z,3.46
2023-03-10T06:13:44.897Z,3.47
2023-03-10T06:16:11.565Z,3.49
2023-03-10T06:18:38.173Z,3.52
2023-03-10T06:21:09.778Z,3.53
2023-03-10T06:23:36.846Z,3.50
2023-03-10T06:26:06.883Z,3.54
2023-03-10T06:28:36.677Z,3.51
2023-03-10T06:31:06.542Z,3.54
2023-03-10T06:33:33.344Z,3.52
2023-03-10T06:36:00.312Z,3.53
2023-03-10T06:38:27.254Z,3.54
2023-03-10T06:40:54.368Z,3.55
2023-03-10T06:43:20.834Z,3.53
2023-03-10T06:45:47.445Z,3.52
2023-03-10T06:48:14.865Z,3.52
2023-03-10T06:50:48.399Z,3.44
2023-03-10T06:53:16.842Z,3.52
2023-03-10T06:55:43.282Z,3.55
2023-03-10T06:58:09.713Z,3.54
2023-03-10T07:00:36.273Z,3.56
2023-03-10T07:03:02.699Z,3.51
2023-03-10T07:05:29.202Z,3.56
2023-03-10T07:07:56.036Z,3.56
2023-03-10T07:10:23.110Z,3.55
2023-03-10T07:12:54.961Z,3.54
2023-03-10T07:15:22.653Z,3.57
2023-03-10T07:17:49.329Z,3.58
2023-03-10T07:20:15.812Z,3.57
2023-03-10T07:22:42.199Z,3.59
2023-03-10T07:25:09.277Z,3.58
2023-03-10T07:27:35.677Z,3.59
2023-03-10T07:30:02.433Z,3.59
2023-03-10T07:32:28.978Z,3.61
2023-03-10T07:34:55.441Z,3.61
2023-03-10T07:37:22.009Z,3.61
2023-03-10T07:39:48.641Z,3.61
2023-03-10T07:42:15.198Z,3.62
2023-03-10T07:44:42.579Z,3.62
2023-03-10T07:47:09.005Z,3.61
2023-03-10T07:49:36.005Z,3.59
2023-03-10T07:52:02.385Z,3.60
2023-03-10T07:54:28.905Z,3.64
2023-03-10T07:56:55.334Z,3.63
2023-03-10T07:59:21.728Z,3.67
2023-03-10T08:01:48.165Z,3.67
2023-03-10T08:04:14.725Z,3.68
2023-03-10T08:06:41.568Z,3.67
2023-03-10T08:09:08.083Z,3.67
2023-03-10T08:11:34.631Z,3.63
2023-03-10T08:14:01.227Z,3.67
2023-03-10T08:16:27.831Z,3.68
2023-03-10T08:18:54.674Z,3.65
2023-03-10T08:21:22.085Z,3.69
2023-03-10T08:23:48.530Z,3.69
2023-03-10T08:26:17.292Z,3.71
2023-03-10T08:28:44.679Z,3.73
2023-03-10T08:31:14.367Z,3.73
2023-03-10T08:33:42.484Z,3.72
2023-03-10T08:36:15.477Z,3.71
2023-03-10T08:38:43.120Z,3.75
2023-03-10T08:41:15.202Z,3.75
2023-03-10T08:43:42.356Z,3.76
2023-03-10T08:46:10.112Z,3.73
2023-03-10T08:48:37.364Z,3.77
2023-03-10T08:51:04.724Z,3.77
2023-03-10T08:53:33.010Z,3.78
2023-03-10T08:55:59.464Z,3.75
2023-03-10T08:58:26.547Z,3.78
2023-03-10T09:00:53.121Z,3.75
2023-03-10T09:03:19.997Z,3.79
2023-03-10T09:05:46.955Z,3.76
2023-03-10T09:08:13.396Z,3.77
2023-03-10T09:10:42.383Z,3.77
2023-03-10T09:13:14.106Z,3.77
2023-03-10T09:15:41.586Z,3.80
2023-03-10T09:18:13.723Z,3.79
2023-03-10T09:20:41.344Z,3.79
2023-03-10T09:23:09.388Z,3.78
2023-03-10T09:25:36.055Z,3.74
2023-03-10T09:28:02.683Z,3.76
2023-03-10T09:30:29.352Z,3.75
2023-03-10T09:32:55.873Z,3.73
2023-03-10T09:35:22.682Z,3.77
2023-03-10T09:37:49.294Z,3.77
2023-03-10T09:40:20.124Z,3.78
2023-03-10T09:43:07.395Z,3.76
2023-03-10T09:46:00.681Z,3.77
2023-03-10T09:48:30.164Z,3.80
2023-03-10T09:50:57.251Z,3.75
2023-03-10T09:53:40.546Z,3.80
2023-03-10T09:56:12.727Z,3.80
2023-03-10T09:58:48.402Z,3.79
2023-03-10T10:01:17.731Z,3.81
2023-03-10T10:03:53.729Z,3.79
2023-03-10T10:06:28.555Z,3.82
2023-03-10T10:09:15.215Z,3.82
2023-03-10T10:11:41.617Z,3.81
2023-03-10T10:14:29.978Z,3.81
2023-03-10T10:17:25.932Z,3.80
2023-03-10T10:19:52.997Z,3.85
2023-03-10T10:22:27.305Z,3.86
2023-03-10T10:25:08.946Z,3.88
2023-03-10T10:27:39.842Z,3.94
2023-03-10T10:30:35.788Z,3.94
2023-03-10T10:33:04.885Z,3.97
2023-03-10T10:35:35.289Z,4.01
2023-03-10T10:38:17.009Z,4.03
2023-03-10T10:41:07.683Z,4.01
2023-03-10T10:43:43.389Z,4.07
2023-03-10T10:46:12.425Z,4.10
2023-03-10T10:48:46.125Z,4.13
2023-03-10T10:51:27.201Z,4.16
2023-03-10T10:53:54.794Z,4.15
2023-03-10T10:56:22.135Z,4.20
2023-03-10T10:59:07.463Z,4.19
2023-03-10T11:01:50.706Z,4.26
2023-03-10T11:04:17.630Z,4.27
2023-03-10T11:06:44.330Z,4.29
2023-03-10T11:09:20.274Z,4.32
2023-03-10T11:11:58.630Z,4.35
2023-03-10T11:15:01.899Z,4.34
2023-03-10T11:17:42.856Z,4.37
2023-03-10T11:20:36.922Z,4.38
2023-03-10T11:23:26.788Z,4.40
2023-03-10T11:26:06.475Z,4.42
2023-03-10T11:29:27.013Z,4.41
2023-03-10T11:32:01.891Z,4.45
2023-03-10T11:34:30.968Z,4.48
2023-03-10T11:37:29.911Z,4.48
2023-03-10T11:40:15.881Z,4.49
2023-03-10T11:43:07.470Z,4.49
2023-03-10T11:45:52.739Z,4.52
2023-03-10T11:48:35.187Z,4.51
2023-03-10T11:51:04.273Z,4.52
2023-03-10T11:53:49.965Z,4.56
2023-03-10T11:56:20.406Z,4.57
2023-03-10T11:58:52.937Z,4.58
2023-03-10T12:01:28.646Z,4.59
2023-03-10T12:04:12.821Z,4.59
2023-03-10T12:06:48.423Z,4.58
2023-03-10T12:09:29.923Z,4.57
2023-03-10T12:11:56.964Z,4.58
2023-03-10T12:14:25.274Z,4.58
2023-03-10T12:16:53.120Z,4.58
2023-03-10T12:19:19.630Z,4.61
2023-03-10T12:22:20.905Z,4.59
2023-03-10T12:24:47.729Z,4.60
2023-03-10T12:27:14.139Z,4.61
2023-03-10T12:29:42.468Z,4.58
2023-03-10T12:32:47.739Z,4.60
2023-03-10T12:35:29.255Z,4.61
2023-03-10T12:38:33.325Z,4.62
2023-03-10T12:41:01.405Z,4.64
2023-03-10T12:43:42.789Z,4.63
2023-03-10T12:46:19.375Z,4.65
2023-03-10T12:49:03.765Z,4.64
2023-03-10T12:51:35.885Z,4.60
2023-03-10T12:54:24.320Z,4.65
2023-03-10T12:57:02.849Z,4.66
2023-03-10T12:59:41.097Z,4.67
2023-03-10T13:02:22.978Z,4.66
2023-03-10T13:04:50.390Z,4.67
2023-03-10T13:07:17.516Z,4.68
2023-03-10T13:09:48.328Z,4.66
2023-03-10T13:12:17.904Z,4.68
2023-03-10T13:14:44.402Z,4.69
2023-03-10T13:17:23.481Z,4.68
2023-03-10T13:20:01.703Z,4.68
2023-03-10T13:22:28.426Z,4.71
2023-03-10T13:25:00.611Z,4.71
2023-03-10T13:27:30.159Z,4.72
2023-03-10T13:30:19.934Z,4.71
2023-03-10T13:32:55.310Z,4.72
2023-03-10T13:35:42.723Z,4.75
2023-03-10T13:38:18.969Z,4.75
2023-03-10T13:40:47.328Z,4.77
2023-03-10T13:43:37.034Z,4.75
2023-03-10T13:46:09.685Z,4.77
2023-03-10T13:48:37.344Z,4.80
2023-03-10T13:51:23.671Z,4.77
2023-03-10T13:53:53.098Z,4.79
2023-03-10T13:56:28.926Z,4.80
2023-03-10T13:58:58.173Z,4.80
2023-03-10T14:01:29.048Z,4.78
2023-03-10T14:04:08.485Z,4.80
2023-03-10T14:06:36.754Z,4.77
2023-03-10T14:09:19.976Z,4.77
2023-03-10T14:11:47.942Z,4.80
2023-03-10T14:14:30.250Z,4.80
2023-03-10T14:16:59.834Z,4.81
2023-03-10T14:19:42.476Z,4.79
2023-03-10T14:22:35.664Z,4.77
2023-03-10T14:25:07.823Z,4.74
2023-03-10T14:27:36.729Z,4.77
2023-03-10T14:30:16.298Z,4.79
2023-03-10T14:32:42.878Z,4.79
2023-03-10T14:35:12.632Z,4.79
2023-03-10T14:37:39.228Z,4.80
2023-03-10T14:40:06.624Z,4.74
2023-03-10T14:42:33.892Z,4.79
2023-03-10T14:45:07.107Z,4.75
2023-03-10T14:47:34.414Z,4.77
2023-03-10T14:50:01.425Z,4.75
2023-03-10T14:52:27.864Z,4.78
2023-03-10T14:54:54.341Z,4.78
2023-03-10T14:57:22.279Z,4.71
2023-03-10T14:59:49.706Z,4.78
2023-03-10T15:02:25.244Z,4.75
2023-03-10T15:04:51.784Z,4.75
2023-03-10T15:07:18.278Z,4.77
2023-03-10T15:09:45.314Z,4.72
2023-03-10T15:12:14.077Z,4.73
2023-03-10T15:14:43.494Z,4.75
2023-03-10T15:17:12.346Z,4.72
2023-03-10T15:19:38.794Z,4.74
2023-03-10T15:22:05.333Z,4.73
2023-03-10T15:24:31.754Z,4.72
2023-03-10T15:26:58.707Z,4.71
2023-03-10T15:29:25.242Z,4.71
2023-03-10T15:31:51.711Z,4.73
2023-03-10T15:34:19.636Z,4.71
2023-03-10T15:36:47.305Z,4.71
2023-03-10T15:39:21.901Z,4.69
2023-03-10T15:41:56.240Z,4.69
2023-03-10T15:44:24.426Z,4.66
2023-03-10T15:46:54.719Z,4.65
2023-03-10T15:49:21.622Z,4.65
2023-03-10T15:51:48.196Z,4.61
2023-03-10T15:54:14.970Z,4.63
2023-03-10T15:56:41.432Z,4.63
2023-03-10T15:59:08.342Z,4.63
2023-03-10T16:01:35.033Z,4.62
2023-03-10T16:04:05.634Z,4.62
2023-03-10T16:06:33.737Z,4.60
2023-03-10T16:09:00.906Z,4.60
2023-03-10T16:11:27.913Z,4.60
2023-03-10T16:13:54.420Z,4.58
2023-03-10T16:16:23.312Z,4.57
2023-03-10T16:18:50.445Z,4.56
2023-03-10T16:21:18.172Z,4.56
2023-03-10T16:23:45.133Z,4.55
2023-03-10T16:26:14.879Z,4.53
2023-03-10T16:28:44.888Z,4.52
2023-03-10T16:31:13.434Z,4.52
2023-03-10T16:33:40.799Z,4.50
2023-03-10T16:36:11.380Z,4.49
2023-03-10T16:38:38.285Z,4.45
2023-03-10T16:41:04.946Z,4.48
2023-03-10T16:43:32.905Z,4.46
2023-03-10T16:46:14.716Z,4.44
2023-03-10T16:48:44.059Z,4.40
2023-03-10T16:51:38.533Z,4.40
2023-03-10T16:54:19.386Z,4.39
2023-03-10T16:56:48.093Z,4.37
2023-03-10T16:59:18.596Z,4.37
2023-03-10T17:01:45.497Z,4.36
2023-03-10T17:04:12.296Z,4.31
2023-03-10T17:06:39.280Z,4.29
2023-03-10T17:09:07.769Z,4.32
2023-03-10T17:11:37.983Z,4.31
2023-03-10T17:14:10.536Z,4.30
2023-03-10T17:16:37.864Z,4.27
2023-03-10T17:19:08.593Z,4.29
2023-03-10T17:21:38.294Z,4.28
2023-03-10T17:24:07.321Z,4.26
2023-03-10T17:26:34.567Z,4.22
2023-03-10T17:29:01.135Z,4.26
2023-03-10T17:31:28.786Z,4.25
2023-03-10T17:33:58.356Z,4.23
2023-03-10T17:36:25.515Z,4.22
2023-03-10T17:38:53.436Z,4.21
2023-03-10T17:41:19.912Z,4.18
2023-03-10T17:43:46.454Z,4.18
2023-03-10T17:46:18.514Z,4.17
2023-03-10T17:48:45.726Z,4.17
2023-03-10T17:51:17.026Z,4.15
2023-03-10T17:53:45.217Z,4.15
2023-03-10T17:56:13.097Z,4.09
2023-03-10T17:58:39.669Z,4.11
2023-03-10T18:01:08.476Z,4.09
2023-03-10T18:03:36.318Z,4.06
2023-03-10T18:06:04.688Z,4.05
2023-03-10T18:08:31.232Z,4.05
2023-03-10T18:11:02.895Z,4.04
2023-03-10T18:13:30.352Z,4.05
2023-03-10T18:15:57.152Z,4.04
2023-03-10T18:18:24.187Z,4.03
2023-03-10T18:20:51.670Z,4.03
2023-03-10T18:23:20.636Z,4.01
2023-03-10T18:25:47.123Z,4.01
2023-03-10T18:28:16.822Z,3.96
2023-03-10T18:30:44.781Z,3.98
2023-03-10T18:33:12.419Z,3.99
2023-03-10T18:35:40.210Z,3.98
2023-03-10T18:38:06.866Z,3.94
2023-03-10T18:40:33.876Z,3.98
2023-03-10T18:43:00.370Z,3.97
2023-03-10T18:45:27.183Z,3.95
2023-03-10T18:47:54.017Z,3.93
2023-03-10T18:50:20.463Z,3.94
2023-03-10T18:52:47.015Z,3.93
2023-03-10T18:55:13.788Z,3.93
2023-03-10T18:57:40.323Z,3.92
2023-03-10T19:00:27.267Z,3.91
2023-03-10T19:02:54.341Z,3.86
2023-03-10T19:05:21.201Z,3.90
2023-03-10T19:07:47.687Z,3.90
2023-03-10T19:10:16.617Z,3.88
2023-03-10T19:12:43.161Z,3.89
2023-03-10T19:15:12.491Z,3.88
2023-03-10T19:17:39.606Z,3.88
2023-03-10T19:20:09.125Z,3.88
2023-03-10T19:22:36.093Z,3.88
2023-03-10T19:25:04.630Z,3.89
2023-03-10T19:27:31.565Z,3.86
2023-03-10T19:29:58.668Z,3.86
2023-03-10T19:32:25.883Z,3.82
2023-03-10T19:34:53.498Z,3.84
2023-03-10T19:37:20.971Z,3.79
2023-03-10T19:39:47.493Z,3.81
2023-03-10T19:42:13.967Z,3.80
2023-03-10T19:44:42.928Z,3.75
2023-03-10T19:47:09.507Z,3.80
2023-03-10T19:49:36.454Z,3.78
2023-03-10T19:52:02.960Z,3.79
2023-03-10T19:54:29.463Z,3.79
2023-03-10T19:56:56.319Z,3.77
2023-03-10T19:59:24.290Z,3.76
2023-03-10T20:01:51.659Z,3.76
2023-03-10T20:04:18.599Z,3.73
2023-03-10T20:07:04.451Z,3.70
2023-03-10T20:09:34.605Z,3.73
2023-03-10T20:12:01.271Z,3.63
2023-03-10T20:14:28.230Z,3.68
2023-03-10T20:16:55.383Z,3.67
2023-03-10T20:19:31.261Z,3.63
2023-03-10T20:22:03.467Z,3.60
2023-03-10T20:24:31.379Z,3.59
2023-03-10T20:27:03.171Z,3.58
2023-03-10T20:29:29.909Z,3.56
2023-03-10T20:32:04.382Z,3.54
2023-03-10T20:34:31.941Z,3.53
2023-03-10T20:36:58.445Z,3.53
2023-03-10T20:39:32.562Z,3.52
2023-03-10T20:42:09.361Z,3.48
2023-03-10T20:44:37.732Z,3.43
2023-03-10T20:47:07.598Z,3.46
2023-03-10T20:49:34.048Z,3.44
2023-03-10T20:52:01.023Z,3.43
2023-03-10T20:54:28.421Z,3.42
2023-03-10T20:56:57.487Z,3.40
2023-03-10T21:00:02.301Z,3.38
2023-03-10T21:02:49.486Z,3.37
2023-03-10T21:05:36.629Z,3.29
2023-03-10T21:08:08.202Z,3.30
2023-03-10T21:10:58.532Z,3.26
2023-03-10T21:13:25.083Z,3.25
2023-03-10T21:15:53.076Z,3.27
2023-03-10T21:18:19.839Z,3.28
2023-03-10T21:20:46.283Z,3.26
2023-03-10T21:23:12.815Z,3.20
2023-03-10T21:25:40.090Z,3.25
2023-03-10T21:28:06.588Z,3.25
2023-03-10T21:30:34.076Z,3.19
2023-03-10T21:33:00.721Z,3.21
2023-03-10T21:35:30.375Z,3.15
2023-03-10T21:37:57.399Z,3.20
2023-03-10T21:40:24.269Z,3.19
2023-03-10T21:42:50.932Z,3.16
2023-03-10T21:45:23.665Z,3.15
2023-03-10T21:47:50.271Z,3.15
2023-03-10T21:50:18.206Z,3.15
2023-03-10T21:52:46.011Z,3.14
2023-03-10T21:55:21.476Z,3.12
2023-03-10T21:57:48.024Z,3.14
2023-03-10T22:00:15.549Z,3.09
2023-03-10T22:02:42.218Z,3.11
2023-03-10T22:05:11.516Z,3.09
2023-03-10T22:07:38.593Z,3.04
2023-03-10T22:10:06.675Z,3.07
2023-03-10T22:12:33.595Z,3.06
2023-03-10T22:15:00.207Z,3.06
2023-03-10T22:17:27.116Z,3.04
2023-03-10T22:19:54.826Z,3.04
2023-03-10T22:22:22.827Z,3.02
2023-03-10T22:24:50.287Z,3.02
2023-03-10T22:27:17.114Z,3.01
2023-03-10T22:29:43.580Z,3.00
2023-03-10T22:32:10.092Z,3.00
2023-03-10T22:34:36.584Z,2.98
2023-03-10T22:37:03.220Z,2.98
2023-03-10T22:39:29.815Z,2.97
2023-03-10T22:41:56.301Z,2.95
2023-03-10T22:44:22.981Z,2.96
2023-03-10T22:46:49.552Z,2.95
2023-03-10T22:49:16.213Z,2.92
2023-03-10T22:51:42.630Z,2.93
2023-03-10T22:54:09.124Z,2.92
2023-03-10T22:56:36.034Z,2.92
2023-03-10T22:59:04.416Z,2.90
2023-03-10T23:01:31.121Z,2.90
2023-03-10T23:03:57.667Z,2.89
2023-03-10T23:06:26.280Z,2.88
2023-03-10T23:08:52.952Z,2.88
2023-03-10T23:11:19.458Z,2.88
2023-03-10T23:13:45.894Z,2.86
2023-03-10T23:16:12.493Z,2.85
2023-03-10T23:18:38.990Z,2.86
2023-03-10T23:21:06.057Z,2.84
2023-03-10T23:23:33.017Z,2.85
2023-03-10T23:25:59.504Z,2.83
2023-03-10T23:28:26.362Z,2.84
2023-03-10T23:30:54.280Z,2.79
2023-03-10T23:33:22.984Z,2.83
2023-03-10T23:35:53.943Z,2.83
2023-03-10T23:38:22.939Z,2.81
2023-03-10T23:40:50.819Z,2.81
2023-03-10T23:43:17.361Z,2.75
2023-03-10T23:45:43.947Z,2.79
2023-03-10T23:48:15.956Z,2.80
2023-03-10T23:50:44.724Z,2.79
2023-03-10T23:53:13.205Z,2.78
2023-03-10T23:55:41.973Z,2.77
2023-03-10T23:58:09.481Z,2.77
